sensor_id;sensor_type;location;lat;lon;timestamp;temperature;humidity
50606;DHT22;36557;53.572;10.170;2023-03-23T00:02:03;10.80;99.90
50606;DHT22;36557;53.572;10.170;2023-03-23T00:04:28;10.80;99.90
50606;DHT22;36557;53.572;10.170;2023-03-23T00:06:54;10.70;99.90
50606;DHT22;36557;53.572;10.170;2023-03-23T00:09:20;10.70;99.90
50606;DHT22;36557;53.572;10.170;2023-03-23T00:11:50;10.60;99.90
50606;DHT22;36557;53.572;10.170;2023-03-23T00:14:16;10.60;99.90
50606;DHT22;36557;53.572;10.170;2023-03-23T00:16:48;10.50;99.90
50606;DHT22;36557;53.572;10.170;2023-03-23T00:19:14;10.40;99.90
50606;DHT22;36557;53.572;10.170;2023-03-23T00:21:42;10.40;99.90
50606;DHT22;36557;53.572;10.170;2023-03-23T00:24:09;10.40;99.90
50606;DHT22;36557;53.572;10.170;2023-03-23T00:26:37;10.30;99.90
50606;DHT22;36557;53.572;10.170;2023-03-23T00:29:06;10.30;99.90
50606;DHT22;36557;53.572;10.170;2023-03-23T00:31:32;10.30;99.90
50606;DHT22;36557;53.572;10.170;2023-03-23T00:34:02;10.20;99.90
50606;DHT22;36557;53.572;10.170;2023-03-23T00:36:30;10.30;99.90
50606;DHT22;36557;53.572;10.170;2023-03-23T00:38:56;10.20;99.90
50606;DHT22;36557;53.572;10.170;2023-03-23T00:41:27;10.20;99.90
50606;DHT22;36557;53.572;10.170;2023-03-23T00:43:57;10.20;99.90
50606;DHT22;36557;53.572;10.170;2023-03-23T00:46:26;10.20;99.90
50606;DHT22;36557;53.572;10.170;2023-03-23T00:48:54;10.20;99.90
50606;DHT22;36557;53.572;10.170;2023-03-23T00:51:19;10.20;99.90
50606;DHT22;36557;53.572;10.170;2023-03-23T00:53:46;10.10;99.90
50606;DHT22;36557;53.572;10.170;2023-03-23T00:56:12;10.10;99.90
50606;DHT22;36557;53.572;10.170;2023-03-23T00:58:39;10.10;99.90
50606;DHT22;36557;53.572;10.170;2023-03-23T01:01:05;10.20;99.90
50606;DHT22;36557;53.572;10.170;2023-03-23T01:03:32;10.10;99.90
50606;DHT22;36557;53.572;10.170;2023-03-23T01:06:08;10.10;99.90
50606;DHT22;36557;53.572;10.170;2023-03-23T01:08:39;10.10;99.90
50606;DHT22;36557;53.572;10.170;2023-03-23T01:11:14;10.00;99.90
50606;DHT22;36557;53.572;10.170;2023-03-23T01:13:41;10.10;99.90
50606;DHT22;36557;53.572;10.170;2023-03-23T01:16:08;10.10;99.90
50606;DHT22;36557;53.572;10.170;2023-03-23T01:18:35;10.10;99.90
50606;DHT22;36557;53.572;10.170;2023-03-23T01:21:23;10.00;99.90
50606;DHT22;36557;53.572;10.170;2023-03-23T01:23:50;10.00;99.90
50606;DHT22;36557;53.572;10.170;2023-03-23T01:26:19;10.00;99.90
50606;DHT22;36557;53.572;10.170;2023-03-23T01:28:46;10.00;99.90
50606;DHT22;36557;53.572;10.170;2023-03-23T01:31:14;10.00;99.90
50606;DHT22;36557;53.572;10.170;2023-03-23T01:33:42;10.00;99.90
50606;DHT22;36557;53.572;10.170;2023-03-23T01:38:37;10.00;99.90
50606;DHT22;36557;53.572;10.170;2023-03-23T01:41:03;9.90;99.90
50606;DHT22;36557;53.572;10.170;2023-03-23T01:43:29;9.90;99.90
50606;DHT22;36557;53.572;10.170;2023-03-23T01:45:55;10.00;99.90
50606;DHT22;36557;53.572;10.170;2023-03-23T01:48:26;10.00;99.90
50606;DHT22;36557;53.572;10.170;2023-03-23T01:51:06;9.90;99.90
50606;DHT22;36557;53.572;10.170;2023-03-23T01:53:38;9.90;99.90
50606;DHT22;36557;53.572;10.170;2023-03-23T01:56:06;10.00;99.90
50606;DHT22;36557;53.572;10.170;2023-03-23T01:58:34;10.00;99.90
50606;DHT22;36557;53.572;10.170;2023-03-23T02:01:08;10.00;99.90
50606;DHT22;36557;53.572;10.170;2023-03-23T02:03:37;10.00;99.90
50606;DHT22;36557;53.572;10.170;2023-03-23T02:06:04;10.00;99.90
50606;DHT22;36557;53.572;10.170;2023-03-23T02:08:32;10.00;99.90
50606;DHT22;36557;53.572;10.170;2023-03-23T02:10:59;10.00;99.90
50606;DHT22;36557;53.572;10.170;2023-03-23T02:13:26;10.00;99.90
50606;DHT22;36557;53.572;10.170;2023-03-23T02:16:07;10.00;99.90
50606;DHT22;36557;53.572;10.170;2023-03-23T02:18:49;10.00;99.90
50606;DHT22;36557;53.572;10.170;2023-03-23T02:21:57;10.00;99.90
50606;DHT22;36557;53.572;10.170;2023-03-23T02:27:13;10.10;99.90
50606;DHT22;36557;53.572;10.170;2023-03-23T02:32:46;10.10;99.90
50606;DHT22;36557;53.572;10.170;2023-03-23T02:35:30;10.10;99.90
50606;DHT22;36557;53.572;10.170;2023-03-23T02:38:01;10.10;99.90
50606;DHT22;36557;53.572;10.170;2023-03-23T02:40:31;10.10;99.90
50606;DHT22;36557;53.572;10.170;2023-03-23T02:42:59;10.20;99.90
50606;DHT22;36557;53.572;10.170;2023-03-23T02:45:27;10.10;99.90
50606;DHT22;36557;53.572;10.170;2023-03-23T02:47:55;10.20;99.90
50606;DHT22;36557;53.572;10.170;2023-03-23T02:50:23;10.20;99.90
50606;DHT22;36557;53.572;10.170;2023-03-23T02:52:52;10.20;99.90
50606;DHT22;36557;53.572;10.170;2023-03-23T02:55:19;10.20;99.90
50606;DHT22;36557;53.572;10.170;2023-03-23T02:57:51;10.20;99.90
50606;DHT22;36557;53.572;10.170;2023-03-23T03:00:18;10.20;99.90
50606;DHT22;36557;53.572;10.170;2023-03-23T03:02:54;10.20;99.90
50606;DHT22;36557;53.572;10.170;2023-03-23T03:08:37;10.20;99.90
50606;DHT22;36557;53.572;10.170;2023-03-23T03:11:12;10.30;99.90
50606;DHT22;36557;53.572;10.170;2023-03-23T03:13:54;10.20;99.90
50606;DHT22;36557;53.572;10.170;2023-03-23T03:16:29;10.30;99.90
50606;DHT22;36557;53.572;10.170;2023-03-23T03:19:04;10.30;99.90
50606;DHT22;36557;53.572;10.170;2023-03-23T03:21:36;10.20;99.90
50606;DHT22;36557;53.572;10.170;2023-03-23T03:24:05;10.20;99.90
50606;DHT22;36557;53.572;10.170;2023-03-23T03:26:41;10.30;99.90
50606;DHT22;36557;53.572;10.170;2023-03-23T03:29:11;10.30;99.90
50606;DHT22;36557;53.572;10.170;2023-03-23T03:31:39;10.30;99.90
50606;DHT22;36557;53.572;10.170;2023-03-23T03:34:14;10.30;99.90
50606;DHT22;36557;53.572;10.170;2023-03-23T03:36:44;10.30;99.90
50606;DHT22;36557;53.572;10.170;2023-03-23T03:39:12;10.30;99.90
50606;DHT22;36557;53.572;10.170;2023-03-23T03:41:40;10.20;99.90
50606;DHT22;36557;53.572;10.170;2023-03-23T03:44:07;10.20;99.90
50606;DHT22;36557;53.572;10.170;2023-03-23T03:46:34;10.20;99.90
50606;DHT22;36557;53.572;10.170;2023-03-23T03:49:02;10.20;99.90
50606;DHT22;36557;53.572;10.170;2023-03-23T03:51:29;10.20;99.90
50606;DHT22;36557;53.572;10.170;2023-03-23T03:53:56;10.20;99.90
50606;DHT22;36557;53.572;10.170;2023-03-23T03:56:22;10.20;99.90
50606;DHT22;36557;53.572;10.170;2023-03-23T03:58:49;10.20;99.90
50606;DHT22;36557;53.572;10.170;2023-03-23T04:01:17;10.30;99.90
50606;DHT22;36557;53.572;10.170;2023-03-23T04:03:44;10.30;99.90
50606;DHT22;36557;53.572;10.170;2023-03-23T04:06:10;10.30;99.90
50606;DHT22;36557;53.572;10.170;2023-03-23T04:08:38;10.30;99.90
50606;DHT22;36557;53.572;10.170;2023-03-23T04:11:05;10.30;99.90
50606;DHT22;36557;53.572;10.170;2023-03-23T04:13:31;10.30;99.90
50606;DHT22;36557;53.572;10.170;2023-03-23T04:15:57;10.30;99.90
50606;DHT22;36557;53.572;10.170;2023-03-23T04:18:23;10.40;99.90
50606;DHT22;36557;53.572;10.170;2023-03-23T04:20:50;10.40;99.90
50606;DHT22;36557;53.572;10.170;2023-03-23T04:23:17;10.40;99.90
50606;DHT22;36557;53.572;10.170;2023-03-23T04:25:47;10.40;99.90
50606;DHT22;36557;53.572;10.170;2023-03-23T04:28:15;10.40;99.90
50606;DHT22;36557;53.572;10.170;2023-03-23T04:30:42;10.40;99.90
50606;DHT22;36557;53.572;10.170;2023-03-23T04:33:09;10.40;99.90
50606;DHT22;36557;53.572;10.170;2023-03-23T04:35:40;10.40;99.90
50606;DHT22;36557;53.572;10.170;2023-03-23T04:38:06;10.40;99.90
50606;DHT22;36557;53.572;10.170;2023-03-23T04:40:36;10.40;99.90
50606;DHT22;36557;53.572;10.170;2023-03-23T04:43:02;10.40;99.90
50606;DHT22;36557;53.572;10.170;2023-03-23T04:45:34;10.40;99.90
50606;DHT22;36557;53.572;10.170;2023-03-23T04:48:04;10.40;99.90
50606;DHT22;36557;53.572;10.170;2023-03-23T04:50:31;10.40;99.90
50606;DHT22;36557;53.572;10.170;2023-03-23T04:53:04;10.40;99.90
50606;DHT22;36557;53.572;10.170;2023-03-23T04:55:35;10.40;99.90
50606;DHT22;36557;53.572;10.170;2023-03-23T04:58:05;10.40;99.90
50606;DHT22;36557;53.572;10.170;2023-03-23T05:00:35;10.40;99.90
50606;DHT22;36557;53.572;10.170;2023-03-23T05:03:01;10.40;99.90
50606;DHT22;36557;53.572;10.170;2023-03-23T05:05:27;10.40;99.90
50606;DHT22;36557;53.572;10.170;2023-03-23T05:07:55;10.50;99.90
50606;DHT22;36557;53.572;10.170;2023-03-23T05:10:21;10.50;99.90
50606;DHT22;36557;53.572;10.170;2023-03-23T05:12:47;10.60;99.90
50606;DHT22;36557;53.572;10.170;2023-03-23T05:15:14;10.70;99.90
50606;DHT22;36557;53.572;10.170;2023-03-23T05:17:41;10.70;99.90
50606;DHT22;36557;53.572;10.170;2023-03-23T05:20:11;10.70;99.90
50606;DHT22;36557;53.572;10.170;2023-03-23T05:22:38;10.80;99.90
50606;DHT22;36557;53.572;10.170;2023-03-23T05:25:05;10.80;99.90
50606;DHT22;36557;53.572;10.170;2023-03-23T05:27:35;10.70;99.90
50606;DHT22;36557;53.572;10.170;2023-03-23T05:30:02;10.80;99.90
50606;DHT22;36557;53.572;10.170;2023-03-23T05:32:28;10.80;99.90
50606;DHT22;36557;53.572;10.170;2023-03-23T05:34:58;10.70;99.90
50606;DHT22;36557;53.572;10.170;2023-03-23T05:37:25;10.70;99.90
50606;DHT22;36557;53.572;10.170;2023-03-23T05:39:52;10.70;99.90
50606;DHT22;36557;53.572;10.170;2023-03-23T05:42:21;10.70;99.90
50606;DHT22;36557;53.572;10.170;2023-03-23T05:44:47;10.70;99.90
50606;DHT22;36557;53.572;10.170;2023-03-23T05:47:13;10.60;99.90
50606;DHT22;36557;53.572;10.170;2023-03-23T05:49:39;10.60;99.90
50606;DHT22;36557;53.572;10.170;2023-03-23T05:52:05;10.70;99.90
50606;DHT22;36557;53.572;10.170;2023-03-23T05:54:31;10.70;99.90
50606;DHT22;36557;53.572;10.170;2023-03-23T05:56:57;10.60;99.90
50606;DHT22;36557;53.572;10.170;2023-03-23T05:59:23;10.60;99.90
50606;DHT22;36557;53.572;10.170;2023-03-23T06:01:48;10.60;99.90
50606;DHT22;36557;53.572;10.170;2023-03-23T06:04:16;10.60;99.90
50606;DHT22;36557;53.572;10.170;2023-03-23T06:06:42;10.60;99.90
50606;DHT22;36557;53.572;10.170;2023-03-23T06:09:09;10.60;99.90
50606;DHT22;36557;53.572;10.170;2023-03-23T06:11:35;10.60;99.90
50606;DHT22;36557;53.572;10.170;2023-03-23T06:14:01;10.50;99.90
50606;DHT22;36557;53.572;10.170;2023-03-23T06:16:27;10.50;99.90
50606;DHT22;36557;53.572;10.170;2023-03-23T06:18:53;10.50;99.90
50606;DHT22;36557;53.572;10.170;2023-03-23T06:21:19;10.50;99.90
50606;DHT22;36557;53.572;10.170;2023-03-23T06:23:45;10.50;99.90
50606;DHT22;36557;53.572;10.170;2023-03-23T06:26:13;10.50;99.90
50606;DHT22;36557;53.572;10.170;2023-03-23T06:28:42;10.60;99.90
50606;DHT22;36557;53.572;10.170;2023-03-23T06:31:08;10.50;99.90
50606;DHT22;36557;53.572;10.170;2023-03-23T06:33:36;10.50;99.90
50606;DHT22;36557;53.572;10.170;2023-03-23T06:36:03;10.50;99.90
50606;DHT22;36557;53.572;10.170;2023-03-23T06:38:30;10.50;99.90
50606;DHT22;36557;53.572;10.170;2023-03-23T06:40:57;10.60;99.90
50606;DHT22;36557;53.572;10.170;2023-03-23T06:43:23;10.60;99.90
50606;DHT22;36557;53.572;10.170;2023-03-23T06:45:50;10.60;99.90
50606;DHT22;36557;53.572;10.170;2023-03-23T06:48:17;10.60;99.90
50606;DHT22;36557;53.572;10.170;2023-03-23T06:50:44;10.70;99.90
50606;DHT22;36557;53.572;10.170;2023-03-23T06:53:10;10.70;99.90
50606;DHT22;36557;53.572;10.170;2023-03-23T06:55:37;10.80;99.90
50606;DHT22;36557;53.572;10.170;2023-03-23T06:58:04;10.80;99.90
50606;DHT22;36557;53.572;10.170;2023-03-23T07:00:31;10.80;99.90
50606;DHT22;36557;53.572;10.170;2023-03-23T07:02:57;10.80;99.90
50606;DHT22;36557;53.572;10.170;2023-03-23T07:05:23;10.80;99.90
50606;DHT22;36557;53.572;10.170;2023-03-23T07:07:50;10.90;99.90
50606;DHT22;36557;53.572;10.170;2023-03-23T07:10:16;11.00;99.90
50606;DHT22;36557;53.572;10.170;2023-03-23T07:12:41;11.00;99.90
50606;DHT22;36557;53.572;10.170;2023-03-23T07:15:08;11.10;99.90
50606;DHT22;36557;53.572;10.170;2023-03-23T07:17:36;11.20;99.90
50606;DHT22;36557;53.572;10.170;2023-03-23T07:20:03;11.30;99.90
50606;DHT22;36557;53.572;10.170;2023-03-23T07:22:29;11.30;99.90
50606;DHT22;36557;53.572;10.170;2023-03-23T07:24:54;11.30;99.90
50606;DHT22;36557;53.572;10.170;2023-03-23T07:27:20;11.40;99.90
50606;DHT22;36557;53.572;10.170;2023-03-23T07:29:46;11.50;99.90
50606;DHT22;36557;53.572;10.170;2023-03-23T07:32:12;11.60;99.90
50606;DHT22;36557;53.572;10.170;2023-03-23T07:34:38;11.60;99.90
50606;DHT22;36557;53.572;10.170;2023-03-23T07:37:04;11.60;99.90
50606;DHT22;36557;53.572;10.170;2023-03-23T07:39:30;11.70;99.90
50606;DHT22;36557;53.572;10.170;2023-03-23T07:41:56;11.70;99.90
50606;DHT22;36557;53.572;10.170;2023-03-23T07:44:22;11.80;99.90
50606;DHT22;36557;53.572;10.170;2023-03-23T07:46:48;11.90;99.90
50606;DHT22;36557;53.572;10.170;2023-03-23T07:49:14;12.00;99.90
50606;DHT22;36557;53.572;10.170;2023-03-23T07:51:41;12.10;99.90
50606;DHT22;36557;53.572;10.170;2023-03-23T07:54:07;12.10;99.90
50606;DHT22;36557;53.572;10.170;2023-03-23T07:56:34;12.10;99.90
50606;DHT22;36557;53.572;10.170;2023-03-23T07:59:01;12.10;99.90
50606;DHT22;36557;53.572;10.170;2023-03-23T08:01:28;12.00;99.90
50606;DHT22;36557;53.572;10.170;2023-03-23T08:03:54;12.00;99.90
50606;DHT22;36557;53.572;10.170;2023-03-23T08:06:26;11.90;99.90
50606;DHT22;36557;53.572;10.170;2023-03-23T08:08:52;11.90;99.90
50606;DHT22;36557;53.572;10.170;2023-03-23T08:11:19;12.00;99.90
50606;DHT22;36557;53.572;10.170;2023-03-23T08:13:46;12.00;99.90
50606;DHT22;36557;53.572;10.170;2023-03-23T08:16:12;12.10;99.90
50606;DHT22;36557;53.572;10.170;2023-03-23T08:18:39;12.00;99.90
50606;DHT22;36557;53.572;10.170;2023-03-23T08:21:06;12.00;99.90
50606;DHT22;36557;53.572;10.170;2023-03-23T08:23:34;12.00;99.90
50606;DHT22;36557;53.572;10.170;2023-03-23T08:26:03;12.00;99.90
50606;DHT22;36557;53.572;10.170;2023-03-23T08:28:30;11.90;99.90
50606;DHT22;36557;53.572;10.170;2023-03-23T08:30:55;11.90;99.90
50606;DHT22;36557;53.572;10.170;2023-03-23T08:33:22;11.80;99.90
50606;DHT22;36557;53.572;10.170;2023-03-23T08:35:58;11.80;99.90
50606;DHT22;36557;53.572;10.170;2023-03-23T08:38:24;11.80;99.90
50606;DHT22;36557;53.572;10.170;2023-03-23T08:40:50;11.70;99.90
50606;DHT22;36557;53.572;10.170;2023-03-23T08:43:17;11.60;99.90
50606;DHT22;36557;53.572;10.170;2023-03-23T08:45:43;11.50;99.90
50606;DHT22;36557;53.572;10.170;2023-03-23T08:48:09;11.40;99.90
50606;DHT22;36557;53.572;10.170;2023-03-23T08:50:36;11.10;99.90
50606;DHT22;36557;53.572;10.170;2023-03-23T08:53:02;11.00;99.90
50606;DHT22;36557;53.572;10.170;2023-03-23T08:55:28;11.00;99.90
50606;DHT22;36557;53.572;10.170;2023-03-23T08:57:54;11.20;99.90
50606;DHT22;36557;53.572;10.170;2023-03-23T09:00:21;11.40;99.90
50606;DHT22;36557;53.572;10.170;2023-03-23T09:02:51;11.50;99.90
50606;DHT22;36557;53.572;10.170;2023-03-23T09:05:19;11.70;99.90
50606;DHT22;36557;53.572;10.170;2023-03-23T09:07:50;11.80;99.90
50606;DHT22;36557;53.572;10.170;2023-03-23T09:10:16;11.90;99.90
50606;DHT22;36557;53.572;10.170;2023-03-23T09:12:44;12.00;99.90
50606;DHT22;36557;53.572;10.170;2023-03-23T09:15:12;12.20;99.90
50606;DHT22;36557;53.572;10.170;2023-03-23T09:17:41;12.40;99.90
50606;DHT22;36557;53.572;10.170;2023-03-23T09:20:09;12.40;99.90
50606;DHT22;36557;53.572;10.170;2023-03-23T09:22:43;12.40;99.90
50606;DHT22;36557;53.572;10.170;2023-03-23T09:25:12;12.30;99.90
50606;DHT22;36557;53.572;10.170;2023-03-23T09:27:39;12.20;99.90
50606;DHT22;36557;53.572;10.170;2023-03-23T09:30:10;12.20;99.90
50606;DHT22;36557;53.572;10.170;2023-03-23T09:32:37;12.00;99.90
50606;DHT22;36557;53.572;10.170;2023-03-23T09:35:06;12.00;99.90
50606;DHT22;36557;53.572;10.170;2023-03-23T09:37:37;12.00;99.90
50606;DHT22;36557;53.572;10.170;2023-03-23T09:40:05;12.00;99.90
50606;DHT22;36557;53.572;10.170;2023-03-23T09:42:35;12.00;99.90
50606;DHT22;36557;53.572;10.170;2023-03-23T09:45:16;12.00;99.90
50606;DHT22;36557;53.572;10.170;2023-03-23T09:50:47;11.80;99.90
50606;DHT22;36557;53.572;10.170;2023-03-23T09:53:57;11.90;99.90
50606;DHT22;36557;53.572;10.170;2023-03-23T09:56:15;11.80;99.90
50606;DHT22;36557;53.572;10.170;2023-03-23T09:58:55;12.10;99.90
50606;DHT22;36557;53.572;10.170;2023-03-23T10:01:26;12.30;99.90
50606;DHT22;36557;53.572;10.170;2023-03-23T10:04:01;12.40;99.90
50606;DHT22;36557;53.572;10.170;2023-03-23T10:06:27;12.40;99.90
50606;DHT22;36557;53.572;10.170;2023-03-23T10:08:56;12.60;99.90
50606;DHT22;36557;53.572;10.170;2023-03-23T10:16:42;12.80;99.90
50606;DHT22;36557;53.572;10.170;2023-03-23T10:19:33;12.70;99.90
50606;DHT22;36557;53.572;10.170;2023-03-23T10:22:09;12.60;99.90
50606;DHT22;36557;53.572;10.170;2023-03-23T10:27:50;12.60;99.90
50606;DHT22;36557;53.572;10.170;2023-03-23T10:38:32;13.20;99.90
50606;DHT22;36557;53.572;10.170;2023-03-23T10:41:04;13.20;99.90
50606;DHT22;36557;53.572;10.170;2023-03-23T10:43:31;13.10;99.90
50606;DHT22;36557;53.572;10.170;2023-03-23T10:46:02;13.10;99.90
50606;DHT22;36557;53.572;10.170;2023-03-23T10:48:31;13.00;99.90
50606;DHT22;36557;53.572;10.170;2023-03-23T10:51:00;12.90;99.90
50606;DHT22;36557;53.572;10.170;2023-03-23T10:53:36;12.70;99.90
50606;DHT22;36557;53.572;10.170;2023-03-23T10:56:04;12.70;99.90
50606;DHT22;36557;53.572;10.170;2023-03-23T10:58:35;12.70;99.90
50606;DHT22;36557;53.572;10.170;2023-03-23T11:01:04;12.70;99.90
50606;DHT22;36557;53.572;10.170;2023-03-23T11:03:44;12.90;99.90
50606;DHT22;36557;53.572;10.170;2023-03-23T11:06:20;13.00;99.90
50606;DHT22;36557;53.572;10.170;2023-03-23T11:08:52;13.00;99.90
50606;DHT22;36557;53.572;10.170;2023-03-23T11:11:30;13.10;99.90
50606;DHT22;36557;53.572;10.170;2023-03-23T11:14:02;13.10;99.90
50606;DHT22;36557;53.572;10.170;2023-03-23T11:16:34;13.00;99.90
50606;DHT22;36557;53.572;10.170;2023-03-23T11:19:13;13.10;99.90
50606;DHT22;36557;53.572;10.170;2023-03-23T11:21:39;13.00;99.90
50606;DHT22;36557;53.572;10.170;2023-03-23T11:24:07;13.10;99.90
50606;DHT22;36557;53.572;10.170;2023-03-23T11:26:34;13.30;99.90
50606;DHT22;36557;53.572;10.170;2023-03-23T11:29:17;13.20;99.90
50606;DHT22;36557;53.572;10.170;2023-03-23T11:34:29;13.10;99.90
50606;DHT22;36557;53.572;10.170;2023-03-23T11:36:58;13.10;99.90
50606;DHT22;36557;53.572;10.170;2023-03-23T11:39:28;13.10;99.90
50606;DHT22;36557;53.572;10.170;2023-03-23T11:41:57;13.20;99.90
50606;DHT22;36557;53.572;10.170;2023-03-23T11:44:26;13.50;99.90
50606;DHT22;36557;53.572;10.170;2023-03-23T11:47:17;13.50;99.90
50606;DHT22;36557;53.572;10.170;2023-03-23T11:49:53;13.60;99.90
50606;DHT22;36557;53.572;10.170;2023-03-23T11:52:29;13.70;99.90
50606;DHT22;36557;53.572;10.170;2023-03-23T11:55:28;13.50;99.90
50606;DHT22;36557;53.572;10.170;2023-03-23T11:57:59;13.60;99.90
50606;DHT22;36557;53.572;10.170;2023-03-23T12:00:26;13.80;99.90
50606;DHT22;36557;53.572;10.170;2023-03-23T12:03:12;13.50;99.90
50606;DHT22;36557;53.572;10.170;2023-03-23T12:06:09;13.30;99.90
50606;DHT22;36557;53.572;10.170;2023-03-23T12:08:51;13.10;99.90
50606;DHT22;36557;53.572;10.170;2023-03-23T12:17:17;13.10;99.90
50606;DHT22;36557;53.572;10.170;2023-03-23T12:20:21;13.10;99.90
50606;DHT22;36557;53.572;10.170;2023-03-23T12:31:44;12.90;99.90
50606;DHT22;36557;53.572;10.170;2023-03-23T12:42:51;12.60;99.90
50606;DHT22;36557;53.572;10.170;2023-03-23T12:45:55;12.80;99.90
50606;DHT22;36557;53.572;10.170;2023-03-23T12:48:34;12.90;99.90
50606;DHT22;36557;53.572;10.170;2023-03-23T12:51:09;12.90;99.90
50606;DHT22;36557;53.572;10.170;2023-03-23T12:53:58;12.60;99.90
50606;DHT22;36557;53.572;10.170;2023-03-23T12:56:58;12.60;99.90
50606;DHT22;36557;53.572;10.170;2023-03-23T13:01:59;12.70;99.90
50606;DHT22;36557;53.572;10.170;2023-03-23T13:04:32;12.60;99.90
50606;DHT22;36557;53.572;10.170;2023-03-23T13:07:00;12.70;99.90
50606;DHT22;36557;53.572;10.170;2023-03-23T13:12:14;13.00;99.90
50606;DHT22;36557;53.572;10.170;2023-03-23T13:28:29;13.60;99.90
50606;DHT22;36557;53.572;10.170;2023-03-23T13:31:11;13.50;99.90
50606;DHT22;36557;53.572;10.170;2023-03-23T13:33:37;13.60;99.90
50606;DHT22;36557;53.572;10.170;2023-03-23T13:36:12;13.50;99.90
50606;DHT22;36557;53.572;10.170;2023-03-23T13:38:44;13.60;99.90
50606;DHT22;36557;53.572;10.170;2023-03-23T13:41:12;13.60;99.90
50606;DHT22;36557;53.572;10.170;2023-03-23T13:43:41;13.50;99.90
50606;DHT22;36557;53.572;10.170;2023-03-23T13:46:28;13.50;99.90
50606;DHT22;36557;53.572;10.170;2023-03-23T13:49:15;13.60;99.90
50606;DHT22;36557;53.572;10.170;2023-03-23T13:54:41;13.50;99.90
50606;DHT22;36557;53.572;10.170;2023-03-23T13:57:33;13.50;99.90
50606;DHT22;36557;53.572;10.170;2023-03-23T14:00:11;13.50;99.90
50606;DHT22;36557;53.572;10.170;2023-03-23T14:02:42;13.70;99.90
50606;DHT22;36557;53.572;10.170;2023-03-23T14:05:32;13.50;99.90
50606;DHT22;36557;53.572;10.170;2023-03-23T14:08:52;13.60;99.90
50606;DHT22;36557;53.572;10.170;2023-03-23T14:11:16;13.50;99.90
50606;DHT22;36557;53.572;10.170;2023-03-23T14:14:06;13.30;99.90
50606;DHT22;36557;53.572;10.170;2023-03-23T14:16:39;13.20;99.90
50606;DHT22;36557;53.572;10.170;2023-03-23T14:19:22;13.20;99.90
50606;DHT22;36557;53.572;10.170;2023-03-23T14:21:56;13.10;99.90
50606;DHT22;36557;53.572;10.170;2023-03-23T14:24:24;12.70;99.90
50606;DHT22;36557;53.572;10.170;2023-03-23T14:27:09;11.50;99.90
50606;DHT22;36557;53.572;10.170;2023-03-23T14:29:35;10.70;99.90
50606;DHT22;36557;53.572;10.170;2023-03-23T14:32:01;10.70;99.90
50606;DHT22;36557;53.572;10.170;2023-03-23T14:34:31;10.90;99.90
50606;DHT22;36557;53.572;10.170;2023-03-23T14:36:58;11.10;99.90
50606;DHT22;36557;53.572;10.170;2023-03-23T14:39:29;11.30;99.90
50606;DHT22;36557;53.572;10.170;2023-03-23T14:42:10;11.50;99.90
50606;DHT22;36557;53.572;10.170;2023-03-23T14:44:47;11.40;99.90
50606;DHT22;36557;53.572;10.170;2023-03-23T14:47:23;11.90;99.90
50606;DHT22;36557;53.572;10.170;2023-03-23T14:49:56;12.20;99.90
50606;DHT22;36557;53.572;10.170;2023-03-23T14:52:27;12.20;99.90
50606;DHT22;36557;53.572;10.170;2023-03-23T14:54:53;12.20;99.90
50606;DHT22;36557;53.572;10.170;2023-03-23T14:57:27;12.20;99.90
50606;DHT22;36557;53.572;10.170;2023-03-23T14:59:53;12.20;99.90
50606;DHT22;36557;53.572;10.170;2023-03-23T15:02:28;12.20;99.90
50606;DHT22;36557;53.572;10.170;2023-03-23T15:05:01;12.20;99.90
50606;DHT22;36557;53.572;10.170;2023-03-23T15:07:33;12.30;99.90
50606;DHT22;36557;53.572;10.170;2023-03-23T15:09:59;12.30;99.90
50606;DHT22;36557;53.572;10.170;2023-03-23T15:12:27;12.30;99.90
50606;DHT22;36557;53.572;10.170;2023-03-23T15:14:59;12.20;99.90
50606;DHT22;36557;53.572;10.170;2023-03-23T15:17:28;12.30;99.90
50606;DHT22;36557;53.572;10.170;2023-03-23T15:19:55;12.30;99.90
50606;DHT22;36557;53.572;10.170;2023-03-23T15:22:28;12.30;99.90
50606;DHT22;36557;53.572;10.170;2023-03-23T15:27:44;12.10;99.90
50606;DHT22;36557;53.572;10.170;2023-03-23T15:32:54;11.80;99.90
50606;DHT22;36557;53.572;10.170;2023-03-23T15:35:25;11.80;99.90
50606;DHT22;36557;53.572;10.170;2023-03-23T15:37:53;11.70;99.90
50606;DHT22;36557;53.572;10.170;2023-03-23T15:40:24;11.80;99.90
50606;DHT22;36557;53.572;10.170;2023-03-23T15:43:04;11.70;99.90
50606;DHT22;36557;53.572;10.170;2023-03-23T15:45:31;11.80;99.90
50606;DHT22;36557;53.572;10.170;2023-03-23T15:48:04;11.70;99.90
50606;DHT22;36557;53.572;10.170;2023-03-23T15:50:35;11.80;99.90
50606;DHT22;36557;53.572;10.170;2023-03-23T15:53:14;12.00;99.90
50606;DHT22;36557;53.572;10.170;2023-03-23T15:55:41;12.10;99.90
50606;DHT22;36557;53.572;10.170;2023-03-23T15:58:12;12.20;99.90
50606;DHT22;36557;53.572;10.170;2023-03-23T16:00:38;12.20;99.90
50606;DHT22;36557;53.572;10.170;2023-03-23T16:03:06;12.30;99.90
50606;DHT22;36557;53.572;10.170;2023-03-23T16:05:33;12.20;99.90
50606;DHT22;36557;53.572;10.170;2023-03-23T16:07:59;12.20;99.90
50606;DHT22;36557;53.572;10.170;2023-03-23T16:10:26;12.10;99.90
50606;DHT22;36557;53.572;10.170;2023-03-23T16:12:52;12.10;99.90
50606;DHT22;36557;53.572;10.170;2023-03-23T16:15:18;12.00;99.90
50606;DHT22;36557;53.572;10.170;2023-03-23T16:17:45;12.00;99.90
50606;DHT22;36557;53.572;10.170;2023-03-23T16:20:18;12.00;99.90
50606;DHT22;36557;53.572;10.170;2023-03-23T16:22:45;12.00;99.90
50606;DHT22;36557;53.572;10.170;2023-03-23T16:25:11;11.90;99.90
50606;DHT22;36557;53.572;10.170;2023-03-23T16:27:38;11.80;99.90
50606;DHT22;36557;53.572;10.170;2023-03-23T16:30:25;11.80;99.90
50606;DHT22;36557;53.572;10.170;2023-03-23T16:32:52;11.70;99.90
50606;DHT22;36557;53.572;10.170;2023-03-23T16:35:18;11.70;99.90
50606;DHT22;36557;53.572;10.170;2023-03-23T16:37:49;11.70;99.90
50606;DHT22;36557;53.572;10.170;2023-03-23T16:40:16;11.90;99.90
50606;DHT22;36557;53.572;10.170;2023-03-23T16:42:42;12.00;99.90
50606;DHT22;36557;53.572;10.170;2023-03-23T16:45:09;12.00;99.90
50606;DHT22;36557;53.572;10.170;2023-03-23T16:47:35;12.00;99.90
50606;DHT22;36557;53.572;10.170;2023-03-23T16:50:02;11.90;99.90
50606;DHT22;36557;53.572;10.170;2023-03-23T16:52:27;11.90;99.90
50606;DHT22;36557;53.572;10.170;2023-03-23T16:54:53;11.70;99.90
50606;DHT22;36557;53.572;10.170;2023-03-23T16:57:19;11.60;99.90
50606;DHT22;36557;53.572;10.170;2023-03-23T16:59:45;11.50;99.90